Time;durP1;ratioP1;P1;durP2;ratioP2;P2;SDS_P1;SDS_P2;PMS_P1;PMS_P2;Temp;Humidity;BMP_temperature;BMP_pressure;BME280_temperature;BME280_humidity;BME280_pressure;Samples;Min_cycle;Max_cycle;Signal;HPM_P1;HPM_P2
2022/01/15 00:01:02;;;;;;;114.07;56.85;;;;;;;3.28;96.94;103198.16;5072423;28;20506;-70
2022/01/15 00:03:28;;;;;;;114.38;54.72;;;;;;;3.33;97.55;103206.94;5071154;28;20059;-69
2022/01/15 00:05:55;;;;;;;131.82;55.75;;;;;;;3.32;97.45;103203.41;5072427;28;20055;-69
2022/01/15 00:08:21;;;;;;;116.15;53.67;;;;;;;3.35;97.18;103197.28;5072799;28;20078;-69
2022/01/15 00:10:46;;;;;;;116.38;54.85;;;;;;;3.33;97.68;103189.41;5072247;28;20035;-69
2022/01/15 00:13:22;;;;;;;120.13;54.25;;;;;;;3.30;97.39;103192.03;5071244;28;20058;-69
2022/01/15 00:16:01;;;;;;;141.70;57.67;;;;;;;3.33;97.49;103196.44;5072951;28;20033;-69
2022/01/15 00:18:40;;;;;;;137.00;57.90;;;;;;;3.32;97.41;103199.91;5072526;28;20020;-69
2022/01/15 00:21:05;;;;;;;140.70;55.97;;;;;;;3.26;97.64;103194.63;5073180;28;20035;-69
2022/01/15 00:23:31;;;;;;;143.68;55.63;;;;;;;3.24;97.32;103193.75;5071237;28;20509;-68
2022/01/15 00:25:56;;;;;;;129.82;58.25;;;;;;;3.24;97.90;103188.50;5071018;28;20021;-69
2022/01/15 00:28:22;;;;;;;125.72;54.38;;;;;;;3.24;98.01;103184.13;5071076;28;20123;-69
2022/01/15 00:30:47;;;;;;;116.53;52.72;;;;;;;3.18;97.86;103174.44;5071064;28;20037;-69
2022/01/15 00:33:13;;;;;;;165.95;56.33;;;;;;;3.22;97.99;103174.44;5071230;28;20032;-69
2022/01/15 00:35:40;;;;;;;118.43;52.05;;;;;;;3.28;97.99;103179.75;5071924;28;20033;-69
2022/01/15 00:38:06;;;;;;;110.93;53.70;;;;;;;3.27;97.70;103175.38;5072186;28;20376;-69
2022/01/15 00:40:31;;;;;;;121.28;51.83;;;;;;;3.22;97.30;103170.06;5071972;28;20032;-69
2022/01/15 00:42:56;;;;;;;114.07;51.42;;;;;;;3.27;97.47;103175.38;5072289;28;20107;-70
2022/01/15 00:45:22;;;;;;;108.82;51.08;;;;;;;3.29;97.03;103169.22;5072099;28;20403;-69
2022/01/15 00:47:49;;;;;;;128.20;49.42;;;;;;;3.23;97.68;103166.56;5088081;28;20074;-69
2022/01/15 00:50:16;;;;;;;125.90;50.75;;;;;;;3.19;97.62;103162.16;5071226;28;20063;-69
2022/01/15 00:52:42;;;;;;;124.80;52.85;;;;;;;3.24;98.07;103164.81;5071596;28;20068;-68
2022/01/15 00:55:08;;;;;;;114.57;50.38;;;;;;;3.17;97.62;103159.50;5071908;28;20035;-69
2022/01/15 00:57:34;;;;;;;107.95;50.50;;;;;;;3.20;97.81;103161.28;5070022;28;20048;-70
2022/01/15 00:59:59;;;;;;;116.73;52.50;;;;;;;3.21;97.69;103152.53;5071874;28;20024;-70
2022/01/15 01:02:25;;;;;;;112.47;48.95;;;;;;;3.21;97.48;103142.03;5069926;28;20028;-69
2022/01/15 01:04:50;;;;;;;125.20;48.97;;;;;;;3.20;98.06;103150.75;5071337;28;20032;-69
2022/01/15 01:07:15;;;;;;;114.13;49.15;;;;;;;3.16;97.32;103147.25;5071653;28;20059;-69
2022/01/15 01:20:52;;;;;;;106.70;46.67;;;;;;;3.10;97.39;103141.97;5071554;28;20039;-69
2022/01/15 01:23:18;;;;;;;103.18;46.20;;;;;;;3.12;97.22;103137.59;5071361;28;20058;-69
2022/01/15 01:25:47;;;;;;;110.72;47.97;;;;;;;3.10;97.33;103134.06;5071232;28;20020;-69
2022/01/15 01:28:21;;;;;;;108.00;46.77;;;;;;;3.10;97.67;103131.44;5071376;28;20029;-69
2022/01/15 01:31:02;;;;;;;112.43;47.25;;;;;;;3.07;96.99;103126.19;5070940;28;20024;-69
2022/01/15 01:33:33;;;;;;;108.30;45.95;;;;;;;3.08;97.24;103130.56;5069587;28;20025;-69
2022/01/15 01:36:10;;;;;;;105.75;45.17;;;;;;;3.06;96.93;103126.16;5071173;28;20028;-70
2022/01/15 01:39:02;;;;;;;118.22;47.47;;;;;;;3.02;96.72;103133.16;5070854;28;20506;-70
2022/01/15 01:41:24;;;;;;;97.05;42.17;;;;;;;3.06;97.36;103131.41;5070841;28;20407;-70
2022/01/15 01:43:56;;;;;;;94.38;41.63;;;;;;;3.03;97.11;103129.66;5071134;28;20024;-69
2022/01/15 01:48:54;;;;;;;87.53;38.83;;;;;;;2.98;96.73;103118.25;5071077;28;20506;-69
2022/01/15 01:51:25;;;;;;;102.40;40.85;;;;;;;2.86;97.03;103121.69;5071465;28;20391;-69
2022/01/15 01:53:51;;;;;;;90.32;42.47;;;;;;;2.81;96.74;103120.78;5071182;28;20039;-69
2022/01/15 01:56:18;;;;;;;97.85;38.67;;;;;;;2.69;96.87;103108.44;5070761;28;20028;-68
2022/01/15 01:58:43;;;;;;;102.88;42.88;;;;;;;2.71;97.04;103117.22;5070278;28;20878;-70
2022/01/15 02:01:08;;;;;;;96.30;41.75;;;;;;;2.73;97.59;103118.09;5069878;28;20032;-70
2022/01/15 02:03:35;;;;;;;93.35;41.20;;;;;;;2.66;97.13;103115.44;5070482;28;20475;-70
2022/01/15 02:06:01;;;;;;;112.20;43.47;;;;;;;2.64;97.12;103115.41;5069544;28;20051;-69
2022/01/15 02:08:26;;;;;;;104.93;41.53;;;;;;;2.63;97.51;103110.16;5070714;28;20416;-69
2022/01/15 02:10:52;;;;;;;92.80;41.63;;;;;;;2.58;98.01;103096.09;5070772;28;20103;-69
2022/01/15 02:13:18;;;;;;;107.07;41.63;;;;;;;2.62;97.81;103103.16;5069253;28;20024;-70
2022/01/15 02:15:44;;;;;;;100.70;41.78;;;;;;;2.60;97.70;103102.25;5069862;28;20550;-70
2022/01/15 02:18:11;;;;;;;93.95;39.13;;;;;;;2.54;98.23;103096.97;5087075;28;20122;-70
2022/01/15 02:21:00;;;;;;;91.00;39.50;;;;;;;2.59;97.80;103101.38;5086125;28;20602;-69
2022/01/15 02:23:35;;;;;;;98.47;38.30;;;;;;;2.56;97.55;103100.47;5071154;28;20037;-69
2022/01/15 02:26:03;;;;;;;93.93;38.70;;;;;;;2.59;97.88;103104.00;5080308;28;20020;-69
2022/01/15 02:28:37;;;;;;;83.45;37.58;;;;;;;2.56;98.05;103096.13;5074147;28;20046;-69
2022/01/15 02:31:06;;;;;;;92.60;38.58;;;;;;;2.56;97.72;103095.22;5074605;28;20033;-70
2022/01/15 02:33:32;;;;;;;105.57;40.13;;;;;;;2.57;97.91;103084.72;5073531;28;20174;-70
2022/01/15 02:35:58;;;;;;;95.50;39.78;;;;;;;2.62;98.38;103090.03;5073379;28;20024;-70
2022/01/15 02:38:24;;;;;;;97.15;38.75;;;;;;;2.60;97.73;103074.22;5074427;28;20024;-70
2022/01/15 02:40:51;;;;;;;93.20;37.00;;;;;;;2.65;98.43;103072.53;5074366;28;20530;-70
2022/01/15 02:43:20;;;;;;;97.40;38.30;;;;;;;2.63;97.98;103069.00;5074537;28;20055;-69
2022/01/15 02:46:00;;;;;;;96.22;35.90;;;;;;;2.70;97.73;103062.03;5074136;28;20493;-70
2022/01/15 02:48:30;;;;;;;89.53;37.42;;;;;;;2.74;97.83;103055.94;5074249;28;20078;-70
2022/01/15 02:50:57;;;;;;;86.43;35.58;;;;;;;2.67;97.80;103054.13;5073828;28;20479;-69
2022/01/15 02:53:22;;;;;;;76.90;32.75;;;;;;;2.65;97.31;103035.75;5074486;28;20087;-69
2022/01/15 02:55:51;;;;;;;75.72;31.98;;;;;;;2.67;97.16;103036.59;5074145;28;20071;-70
2022/01/15 02:58:19;;;;;;;76.20;33.60;;;;;;;2.54;97.06;103044.44;5091506;28;20423;-69
2022/01/15 03:00:45;;;;;;;82.20;32.15;;;;;;;2.53;97.49;103040.94;5073267;28;20032;-70
2022/01/15 03:03:11;;;;;;;82.70;34.53;;;;;;;2.53;97.40;103024.28;5073581;28;20073;-70
2022/01/15 03:05:36;;;;;;;75.73;33.17;;;;;;;2.59;97.81;103035.72;5073578;28;20375;-70
2022/01/15 03:08:02;;;;;;;78.43;34.45;;;;;;;2.60;98.06;103029.56;5073795;28;20051;-70
2022/01/15 03:10:28;;;;;;;84.55;34.90;;;;;;;2.59;97.67;103024.31;5073624;28;20063;-70
2022/01/15 03:12:55;;;;;;;81.22;35.15;;;;;;;2.59;97.57;103026.94;5073736;28;20021;-70
2022/01/15 03:15:23;;;;;;;78.73;34.67;;;;;;;2.59;97.21;103032.19;5073787;28;20025;-69
2022/01/15 03:17:50;;;;;;;75.78;33.65;;;;;;;2.49;97.16;103020.75;5072677;28;20425;-70
2022/01/15 03:20:18;;;;;;;81.05;33.45;;;;;;;2.53;97.20;103024.28;5073659;28;20115;-70
2022/01/15 03:22:44;;;;;;;70.07;31.90;;;;;;;2.48;97.27;103027.75;5073475;28;20342;-70
2022/01/15 03:25:11;;;;;;;73.07;30.35;;;;;;;2.43;97.18;103023.34;5073403;28;20025;-69
2022/01/15 03:27:37;;;;;;;70.03;30.77;;;;;;;2.34;97.07;103016.28;5075008;28;20028;-69
2022/01/15 03:30:07;;;;;;;76.22;30.92;;;;;;;2.34;97.46;103018.03;5076441;28;20025;-69
2022/01/15 03:32:33;;;;;;;81.37;30.47;;;;;;;2.31;97.46;103018.91;5076207;28;20038;-70
2022/01/15 03:34:59;;;;;;;72.50;31.55;;;;;;;2.29;97.65;103018.00;5074679;28;20036;-70
2022/01/15 03:37:24;;;;;;;71.55;32.03;;;;;;;2.30;98.41;103014.53;5088004;28;20099;-70
2022/01/15 03:39:50;;;;;;;72.03;32.83;;;;;;;2.30;98.26;103011.91;5076052;28;20115;-70
2022/01/15 03:42:15;;;;;;;79.13;34.88;;;;;;;2.32;98.17;103014.53;5074486;28;20028;-70
2022/01/15 03:44:49;;;;;;;82.43;34.63;;;;;;;2.37;97.92;103010.19;5072779;28;20505;-70
2022/01/15 03:47:17;;;;;;;76.05;33.50;;;;;;;2.39;98.73;103011.09;5071467;28;20021;-69
2022/01/15 03:49:43;;;;;;;74.05;34.78;;;;;;;2.40;98.35;103011.06;5072070;28;20059;-69
2022/01/15 03:52:10;;;;;;;76.45;35.42;;;;;;;2.43;98.23;103000.59;5071902;28;20086;-69
2022/01/15 03:54:38;;;;;;;77.00;33.50;;;;;;;2.45;98.36;102998.84;5072905;28;20475;-70
2022/01/15 03:57:05;;;;;;;76.28;34.65;;;;;;;2.41;98.20;102986.59;5077984;28;20025;-69
2022/01/15 03:59:31;;;;;;;74.45;33.55;;;;;;;2.45;98.15;102984.84;5072813;28;20475;-70
2022/01/15 04:01:57;;;;;;;69.78;32.20;;;;;;;2.45;98.03;102987.47;5071627;28;20035;-70
2022/01/15 04:04:22;;;;;;;70.35;30.33;;;;;;;2.43;97.87;102997.97;5073166;28;20033;-69
2022/01/15 04:06:50;;;;;;;73.53;31.13;;;;;;;2.34;97.51;102986.53;5072271;28;20028;-69
2022/01/15 04:09:17;;;;;;;65.55;29.48;;;;;;;2.33;96.93;102988.28;5071716;28;20424;-69
2022/01/15 04:11:45;;;;;;;59.78;29.13;;;;;;;2.36;96.99;102996.19;5072612;28;20549;-69
2022/01/15 04:14:11;;;;;;;62.33;29.63;;;;;;;2.29;97.04;102983.88;5072690;28;20028;-69
2022/01/15 04:16:38;;;;;;;61.95;29.92;;;;;;;2.31;97.24;102979.53;5072601;28;20016;-70
2022/01/15 04:19:06;;;;;;;68.45;31.25;;;;;;;2.25;97.47;102984.75;5072352;28;20078;-70
2022/01/15 04:21:32;;;;;;;65.25;31.45;;;;;;;2.28;97.57;102980.38;5072313;28;20055;-70
2022/01/15 04:23:57;;;;;;;68.10;32.63;;;;;;;2.24;97.84;102968.09;5072625;28;20075;-69
2022/01/15 04:26:25;;;;;;;71.20;33.42;;;;;;;2.20;97.88;102973.31;5072339;28;20028;-69
2022/01/15 04:28:52;;;;;;;85.63;35.00;;;;;;;2.18;97.96;102967.22;5085657;28;20071;-70
2022/01/15 04:31:18;;;;;;;72.60;34.95;;;;;;;2.26;98.17;102970.72;5071989;28;20103;-69
2022/01/15 04:33:46;;;;;;;76.57;34.57;;;;;;;2.24;98.05;102962.88;5071173;28;20032;-70
2022/01/15 04:36:12;;;;;;;79.07;33.23;;;;;;;2.24;97.84;102962.00;5071106;28;20024;-69
2022/01/15 04:38:42;;;;;;;73.27;33.20;;;;;;;2.18;97.93;102957.59;5072351;28;20086;-69
2022/01/15 04:41:08;;;;;;;73.28;33.95;;;;;;;2.17;97.68;102957.56;5072102;28;20047;-69
2022/01/15 04:43:35;;;;;;;72.22;33.90;;;;;;;2.15;97.91;102956.69;5071809;28;20058;-69
2022/01/15 04:46:00;;;;;;;80.20;35.90;;;;;;;2.17;98.18;102945.31;5072234;28;20176;-69
2022/01/15 04:48:27;;;;;;;79.13;33.90;;;;;;;2.23;98.34;102952.34;5070932;28;20032;-69
2022/01/15 04:50:52;;;;;;;78.63;34.67;;;;;;;2.19;98.35;102953.19;5072075;28;20052;-70
2022/01/15 04:53:20;;;;;;;73.53;33.28;;;;;;;2.18;98.07;102948.84;5071872;28;20466;-69
2022/01/15 04:55:47;;;;;;;72.97;32.03;;;;;;;2.17;98.21;102947.94;5071028;28;20475;-69
2022/01/15 04:58:13;;;;;;;71.25;32.35;;;;;;;2.19;98.06;102940.94;5071036;28;20056;-70
2022/01/15 05:00:39;;;;;;;73.15;33.70;;;;;;;2.19;98.39;102942.69;5071635;28;20077;-69
2022/01/15 05:03:05;;;;;;;78.27;34.47;;;;;;;2.17;97.96;102934.81;5070700;28;20041;-70
2022/01/15 05:05:30;;;;;;;79.90;34.25;;;;;;;2.25;98.42;102932.22;5071411;28;20390;-70
2022/01/15 05:07:56;;;;;;;76.85;33.83;;;;;;;2.24;97.96;102931.34;5070408;28;20032;-69
2022/01/15 05:10:27;;;;;;;78.53;33.65;;;;;;;2.22;97.65;102937.47;5069974;28;20021;-69
2022/01/15 05:12:59;;;;;;;91.97;36.88;;;;;;;2.19;98.40;102934.81;5070047;28;20032;-70
2022/01/15 05:15:24;;;;;;;82.35;36.00;;;;;;;2.19;98.26;102926.94;5071460;28;20020;-70
2022/01/15 05:17:51;;;;;;;81.60;37.17;;;;;;;2.23;98.17;102924.34;5071718;28;20108;-69
2022/01/15 05:20:18;;;;;;;78.83;37.07;;;;;;;2.27;98.29;102926.13;5070017;28;20484;-69
2022/01/15 05:22:44;;;;;;;91.10;37.00;;;;;;;2.17;98.22;102908.56;5071391;28;20497;-70
2022/01/15 05:25:13;;;;;;;77.83;36.77;;;;;;;2.22;98.03;102919.09;5070963;28;20073;-69
2022/01/15 05:27:39;;;;;;;74.80;37.07;;;;;;;2.26;98.09;102910.34;5070373;28;20029;-70
2022/01/15 05:30:07;;;;;;;79.20;36.97;;;;;;;2.22;97.88;102911.22;5070855;28;20035;-70
2022/01/15 05:32:35;;;;;;;90.95;38.30;;;;;;;2.27;97.58;102901.63;5069910;28;20110;-70
2022/01/15 05:35:01;;;;;;;93.17;38.67;;;;;;;2.30;97.88;102900.75;5070756;28;20078;-70
2022/01/15 05:37:27;;;;;;;88.87;40.33;;;;;;;2.25;98.39;102892.84;5070942;28;20037;-70
2022/01/15 05:39:53;;;;;;;80.63;38.00;;;;;;;2.36;98.21;102885.91;5071276;28;20114;-69
2022/01/15 05:42:18;;;;;;;88.73;38.43;;;;;;;2.32;98.08;102881.50;5069776;28;20498;-69
2022/01/15 05:44:44;;;;;;;79.20;38.00;;;;;;;2.37;98.12;102882.41;5070219;28;20025;-70
2022/01/15 05:47:09;;;;;;;83.30;38.87;;;;;;;2.36;98.10;102885.91;5071111;28;20025;-70
2022/01/15 05:49:35;;;;;;;77.03;38.17;;;;;;;2.27;97.79;102867.50;5070857;28;20032;-69
2022/01/15 05:52:02;;;;;;;81.87;39.63;;;;;;;2.34;97.92;102877.13;5071175;28;20050;-70
2022/01/15 05:54:27;;;;;;;82.57;38.30;;;;;;;2.28;97.44;102862.22;5070294;28;20502;-70
2022/01/15 05:56:55;;;;;;;78.57;36.67;;;;;;;2.31;97.83;102873.63;5070766;28;20017;-70
2022/01/15 05:59:21;;;;;;;72.57;36.57;;;;;;;2.25;97.88;102869.22;5069093;28;20056;-70
2022/01/15 06:01:47;;;;;;;74.70;36.93;;;;;;;2.21;97.73;102864.84;5070192;28;20036;-70
2022/01/15 06:04:13;;;;;;;92.73;36.70;;;;;;;2.19;97.75;102856.94;5070796;28;20071;-69
2022/01/15 06:06:40;;;;;;;82.37;36.47;;;;;;;2.16;98.01;102863.94;5069887;28;20060;-70
2022/01/15 06:09:06;;;;;;;74.43;38.63;;;;;;;2.22;98.46;102863.97;5070619;28;20045;-69
2022/01/15 06:11:34;;;;;;;75.10;38.20;;;;;;;2.22;98.37;102851.72;5070588;28;20395;-70
2022/01/15 06:14:00;;;;;;;69.40;36.30;;;;;;;2.26;98.17;102852.59;5070832;28;20045;-70
2022/01/15 06:16:26;;;;;;;72.03;35.57;;;;;;;2.26;98.35;102853.50;5069706;28;20471;-70
2022/01/15 06:18:51;;;;;;;72.63;35.80;;;;;;;2.26;98.27;102858.75;5069201;28;20025;-69
2022/01/15 06:21:17;;;;;;;80.47;36.47;;;;;;;2.27;97.87;102859.63;5070311;28;20025;-70
2022/01/15 06:23:43;;;;;;;75.57;35.87;;;;;;;2.24;98.33;102851.72;5068967;28;20037;-70
2022/01/15 06:26:11;;;;;;;83.50;33.20;;;;;;;2.22;98.09;102851.72;5085933;28;20657;-70
2022/01/15 06:28:36;;;;;;;65.43;33.23;;;;;;;2.23;97.85;102850.81;5069794;28;20074;-70
2022/01/15 06:31:02;;;;;;;69.50;33.57;;;;;;;2.16;98.27;102835.94;5066881;28;20037;-70
2022/01/15 06:33:28;;;;;;;74.77;34.10;;;;;;;2.21;97.87;102847.34;5070587;28;20163;-69
2022/01/15 06:35:53;;;;;;;68.97;33.03;;;;;;;2.20;97.90;102845.56;5068628;28;20877;-69
2022/01/15 06:38:19;;;;;;;70.63;34.53;;;;;;;2.20;98.41;102848.19;5086517;28;20498;-69
2022/01/15 06:40:45;;;;;;;65.27;32.50;;;;;;;2.18;98.05;102842.09;5052575;28;20040;-69
2022/01/15 06:43:10;;;;;;;65.40;32.70;;;;;;;2.22;98.20;102840.34;5068985;28;20056;-69
2022/01/15 06:45:36;;;;;;;95.63;33.20;;;;;;;2.11;97.67;102840.28;5068652;28;20402;-70
2022/01/15 06:48:01;;;;;;;72.60;32.37;;;;;;;2.12;98.32;102849.94;5070780;28;20043;-69
2022/01/15 06:50:28;;;;;;;81.77;33.17;;;;;;;2.12;98.39;102842.06;5069895;28;20467;-69
2022/01/15 06:52:54;;;;;;;69.20;31.70;;;;;;;2.09;98.40;102846.41;5069073;28;20036;-69
2022/01/15 06:55:23;;;;;;;66.47;31.70;;;;;;;2.11;98.40;102845.53;5070953;28;20110;-69
2022/01/15 06:57:49;;;;;;;89.20;33.33;;;;;;;2.08;98.73;102847.28;5069386;28;20504;-69
2022/01/15 07:00:17;;;;;;;68.17;33.00;;;;;;;2.10;98.69;102842.91;5069250;28;20111;-70
2022/01/15 07:02:43;;;;;;;115.87;35.37;;;;;;;2.06;98.65;102849.91;5070326;28;20337;-70
2022/01/15 07:05:09;;;;;;;137.23;34.27;;;;;;;2.02;98.63;102838.50;5085493;28;20041;-69
2022/01/15 07:07:40;;;;;;;80.27;33.20;;;;;;;2.07;98.54;102848.16;5068831;28;20036;-70
2022/01/15 07:10:07;;;;;;;96.47;34.47;;;;;;;2.10;99.14;102842.91;5074916;28;20494;-69
2022/01/15 07:12:33;;;;;;;72.80;31.20;;;;;;;2.06;98.51;102844.66;5070474;28;20028;-70
2022/01/15 07:14:59;;;;;;;97.60;31.10;;;;;;;2.05;98.65;102849.00;5070006;28;20041;-70
2022/01/15 07:17:24;;;;;;;122.50;28.70;;;;;;;2.04;98.74;102846.38;5089236;28;20029;-69
2022/01/15 07:19:51;;;;;;;91.13;28.90;;;;;;;2.05;98.51;102850.75;5073742;28;20514;-69
2022/01/15 07:22:17;;;;;;;78.10;28.57;;;;;;;1.98;98.70;102839.38;5055871;28;20036;-69
2022/01/15 07:24:43;;;;;;;87.97;27.07;;;;;;;2.01;98.52;102849.00;5074350;28;20045;-68
2022/01/15 07:27:08;;;;;;;74.20;24.87;;;;;;;1.95;98.16;102849.84;5074544;28;20368;-69
2022/01/15 07:29:36;;;;;;;75.33;24.47;;;;;;;1.90;98.03;102834.94;5074456;28;20032;-69
2022/01/15 07:32:03;;;;;;;108.20;24.57;;;;;;;1.89;98.40;102844.56;5074624;28;20099;-70
2022/01/15 07:34:28;;;;;;;52.00;25.03;;;;;;;1.88;98.46;102848.03;5073982;28;20033;-69
2022/01/15 07:36:59;;;;;;;79.13;24.93;;;;;;;1.88;98.14;102844.53;5072729;28;20040;-70
2022/01/15 07:39:25;;;;;;;91.77;24.47;;;;;;;1.80;98.18;102834.03;5074422;28;20020;-69
2022/01/15 07:41:52;;;;;;;120.60;25.70;;;;;;;1.79;98.06;102838.41;5074463;28;20035;-69
2022/01/15 07:44:18;;;;;;;56.47;25.80;;;;;;;1.81;98.36;102844.50;5074044;28;20024;-69
2022/01/15 07:46:44;;;;;;;81.03;25.20;;;;;;;1.75;98.03;102833.13;5073877;28;20082;-69
2022/01/15 07:49:09;;;;;;;64.37;25.93;;;;;;;1.77;98.51;102842.75;5072781;28;20056;-69
2022/01/15 07:51:35;;;;;;;74.40;27.17;;;;;;;1.83;98.48;102862.03;5074228;28;20033;-69
2022/01/15 07:54:03;;;;;;;65.67;25.00;;;;;;;1.81;98.27;102856.75;5073899;28;20036;-69
2022/01/15 07:56:29;;;;;;;50.63;26.50;;;;;;;1.88;98.63;102853.28;5073683;28;20048;-70
2022/01/15 07:58:54;;;;;;;135.10;26.70;;;;;;;1.80;98.21;102855.00;5072250;28;20048;-69
2022/01/15 08:01:20;;;;;;;55.17;25.33;;;;;;;1.76;98.08;102859.34;5074100;28;20032;-69
2022/01/15 08:03:48;;;;;;;118.43;25.03;;;;;;;1.64;97.78;102866.28;5073264;28;20078;-70
2022/01/15 08:06:14;;;;;;;93.30;25.53;;;;;;;1.58;97.99;102860.09;5073335;28;20060;-69
2022/01/15 08:08:40;;;;;;;68.77;24.77;;;;;;;1.59;98.01;102859.25;5072241;28;20443;-69
2022/01/15 08:11:05;;;;;;;39.20;23.23;;;;;;;1.61;98.34;102846.13;5073576;28;20067;-69
2022/01/15 08:13:31;;;;;;;78.00;25.27;;;;;;;1.62;98.22;102857.50;5072131;28;20056;-69
2022/01/15 08:15:57;;;;;;;78.87;24.77;;;;;;;1.64;98.00;102848.78;5072934;28;20162;-69
2022/01/15 08:18:25;;;;;;;70.77;25.87;;;;;;;1.58;97.75;102836.50;5073396;28;20031;-69
2022/01/15 08:20:53;;;;;;;70.93;25.17;;;;;;;1.66;97.95;102851.44;5073783;28;20450;-69
2022/01/15 08:23:19;;;;;;;53.17;26.63;;;;;;;1.67;97.96;102845.31;5073517;28;20032;-70
2022/01/15 08:25:44;;;;;;;74.40;29.73;;;;;;;1.66;97.89;102843.56;5071760;28;20021;-69
2022/01/15 08:28:10;;;;;;;56.93;30.50;;;;;;;1.69;97.85;102844.44;5072860;28;20063;-70
2022/01/15 08:30:35;;;;;;;85.67;29.50;;;;;;;1.64;97.85;102840.03;5072944;28;20154;-69
2022/01/15 08:33:03;;;;;;;91.40;30.20;;;;;;;1.57;97.83;102834.75;5073051;28;20372;-70
2022/01/15 08:35:29;;;;;;;104.57;31.93;;;;;;;1.52;97.86;102830.34;5071848;28;20029;-70
2022/01/15 08:37:59;;;;;;;57.10;29.57;;;;;;;1.54;98.37;102839.13;5072532;28;20116;-70
2022/01/15 08:40:28;;;;;;;82.37;27.87;;;;;;;1.51;97.46;102845.22;5073168;28;20029;-69
2022/01/15 08:42:54;;;;;;;72.90;29.00;;;;;;;1.45;97.77;102834.69;5073000;28;20028;-70
2022/01/15 08:45:20;;;;;;;50.90;27.97;;;;;;;1.52;97.65;102839.09;5072951;28;20044;-69
2022/01/15 08:47:46;;;;;;;77.87;28.27;;;;;;;1.47;97.44;102839.91;5071058;28;20115;-70
2022/01/15 08:50:16;;;;;;;73.87;28.17;;;;;;;1.45;97.10;102846.91;5072922;28;20054;-69
2022/01/15 08:52:42;;;;;;;65.30;29.38;;;;;;;1.47;97.09;102838.22;5072651;28;20059;-68
2022/01/15 08:55:08;;;;;;;78.77;28.67;;;;;;;1.38;96.93;102840.72;5072662;28;20581;-70
2022/01/15 08:57:36;;;;;;;88.20;28.13;;;;;;;1.39;97.20;102836.41;5072023;28;20503;-70
2022/01/15 09:00:08;;;;;;;64.57;30.10;;;;;;;1.40;97.07;102836.38;5072615;28;20028;-69
2022/01/15 09:02:34;;;;;;;67.63;31.60;;;;;;;1.42;97.43;102841.66;5072257;28;20024;-70
2022/01/15 09:05:00;;;;;;;63.30;32.40;;;;;;;1.47;97.60;102830.34;5072137;28;20036;-69
2022/01/15 09:07:25;;;;;;;64.17;31.47;;;;;;;1.46;97.25;102830.31;5070615;28;20372;-70
2022/01/15 09:09:51;;;;;;;66.20;32.73;;;;;;;1.55;97.23;102833.88;5072286;28;20031;-69
2022/01/15 09:12:17;;;;;;;89.37;33.43;;;;;;;1.55;97.47;102825.13;5070898;28;20502;-70
2022/01/15 09:14:44;;;;;;;62.13;33.03;;;;;;;1.56;96.92;102827.78;5054029;28;20476;-70
2022/01/15 09:17:12;;;;;;;70.00;34.03;;;;;;;1.55;97.31;102826.00;5070211;28;20030;-70
2022/01/15 09:19:38;;;;;;;73.13;32.40;;;;;;;1.59;97.12;102816.44;5071919;28;20352;-69
2022/01/15 09:22:06;;;;;;;79.77;35.17;;;;;;;1.64;97.39;102826.94;5071853;28;20082;-70
2022/01/15 09:24:32;;;;;;;66.13;34.33;;;;;;;1.71;97.16;102823.50;5072038;28;20430;-69
2022/01/15 09:32:08;;;;;;;74.70;35.33;;;;;;;1.65;96.58;102812.94;5071044;28;20039;-69
2022/01/15 09:34:35;;;;;;;89.97;35.57;;;;;;;1.58;96.51;102809.41;5071907;28;20024;-70
2022/01/15 09:37:02;;;;;;;69.60;35.80;;;;;;;1.58;96.66;102798.91;5070901;28;20028;-70
2022/01/15 09:39:28;;;;;;;70.97;36.53;;;;;;;1.58;97.05;102805.03;5070597;28;20107;-69
2022/01/15 09:41:54;;;;;;;75.73;37.07;;;;;;;1.51;97.10;102798.00;5071804;28;20103;-69
2022/01/15 09:44:21;;;;;;;65.13;36.37;;;;;;;1.55;97.14;102801.53;5071954;28;20424;-70
2022/01/15 09:46:48;;;;;;;71.45;36.03;;;;;;;1.56;97.25;102798.94;5068872;28;20048;-69
2022/01/15 09:49:15;;;;;;;73.93;36.70;;;;;;;1.61;97.31;102803.31;5070466;28;20024;-70
2022/01/15 09:51:42;;;;;;;69.30;37.00;;;;;;;1.69;97.34;102804.22;5052056;28;20438;-70
2022/01/15 09:54:08;;;;;;;71.67;37.67;;;;;;;1.71;97.16;102810.38;5069757;28;20035;-69
2022/01/15 09:56:34;;;;;;;80.17;37.27;;;;;;;1.73;96.92;102809.50;5070150;28;20028;-70
2022/01/15 09:59:02;;;;;;;69.83;36.27;;;;;;;1.77;97.12;102807.78;5071237;28;20064;-70
2022/01/15 10:01:29;;;;;;;76.03;37.00;;;;;;;1.66;96.79;102794.59;5070488;28;20539;-70
2022/01/15 10:03:55;;;;;;;67.50;37.10;;;;;;;1.73;96.61;102811.25;5070930;28;20024;-70
2022/01/15 10:06:21;;;;;;;76.97;38.30;;;;;;;1.68;96.58;102810.38;5072464;28;20051;-69
2022/01/15 10:09:07;;;;;;;78.37;39.40;;;;;;;1.70;97.38;102811.22;5069562;28;20032;-69
2022/01/15 10:11:46;;;;;;;76.40;37.90;;;;;;;1.73;97.34;102808.63;5070927;28;20064;-70
2022/01/15 10:14:32;;;;;;;86.50;41.80;;;;;;;1.74;97.33;102806.03;5069884;28;20106;-69
2022/01/15 10:17:00;;;;;;;84.27;40.87;;;;;;;1.71;97.32;102811.25;5069376;28;20043;-69
2022/01/15 10:19:34;;;;;;;82.43;40.17;;;;;;;1.77;97.42;102813.91;5070045;28;20023;-70
2022/01/15 10:22:14;;;;;;;90.93;41.53;;;;;;;1.80;97.47;102815.66;5076282;28;20032;-70
2022/01/15 10:24:42;;;;;;;79.63;40.60;;;;;;;1.75;97.19;102807.75;5071935;28;20027;-69
2022/01/15 10:27:21;;;;;;;92.80;42.17;;;;;;;1.73;97.07;102787.63;5070245;28;20107;-70
2022/01/15 10:30:01;;;;;;;85.43;40.60;;;;;;;1.72;97.61;102792.00;5070770;28;20021;-70
2022/01/15 10:32:30;;;;;;;93.78;43.05;;;;;;;1.79;97.44;102801.69;5070371;28;20398;-70
2022/01/15 10:35:00;;;;;;;95.72;44.97;;;;;;;1.71;97.62;102758.78;5085569;28;20117;-70
2022/01/15 10:37:36;;;;;;;93.88;44.08;;;;;;;1.90;97.69;102782.47;5070186;28;20021;-70
2022/01/15 10:40:08;;;;;;;92.18;43.78;;;;;;;1.92;97.59;102793.88;5070400;28;20078;-70
2022/01/15 10:42:35;;;;;;;97.32;43.67;;;;;;;1.90;97.46;102783.34;5068529;28;20032;-70
2022/01/15 10:45:31;;;;;;;96.85;43.80;;;;;;;1.91;97.48;102778.97;5069220;28;20135;-69
2022/01/15 10:47:58;;;;;;;100.40;45.22;;;;;;;1.87;97.49;102783.34;5069562;28;20097;-69
2022/01/15 10:50:36;;;;;;;94.88;44.25;;;;;;;1.95;97.71;102793.88;5074206;28;20033;-70
2022/01/15 10:53:10;;;;;;;100.93;42.93;;;;;;;1.97;97.52;102790.38;5072515;28;20430;-70
2022/01/15 10:55:39;;;;;;;98.17;44.90;;;;;;;1.93;97.39;102791.22;5072811;28;20029;-69
2022/01/15 10:58:11;;;;;;;86.22;41.60;;;;;;;1.96;97.54;102779.88;5073053;28;20071;-70
2022/01/15 11:00:39;;;;;;;100.63;45.37;;;;;;;1.96;97.65;102775.50;5074087;28;20106;-69
2022/01/15 11:03:07;;;;;;;96.57;45.47;;;;;;;2.03;97.88;102774.66;5073635;28;20122;-69
2022/01/15 11:05:38;;;;;;;97.22;42.38;;;;;;;2.10;97.82;102775.56;5074174;28;20028;-70
2022/01/15 11:08:14;;;;;;;89.20;42.57;;;;;;;2.14;97.46;102773.81;5073862;28;20119;-69
2022/01/15 11:11:02;;;;;;;89.10;41.53;;;;;;;2.16;97.74;102765.06;5073313;28;20027;-70
2022/01/15 11:13:39;;;;;;;85.77;42.20;;;;;;;2.16;97.26;102765.06;5073586;28;20020;-69
2022/01/15 11:16:08;;;;;;;94.93;43.73;;;;;;;2.12;96.80;102763.31;5073188;28;20035;-70
2022/01/15 11:18:37;;;;;;;83.32;40.42;;;;;;;2.13;97.01;102757.19;5073286;28;20497;-69
2022/01/15 11:21:15;;;;;;;79.40;39.33;;;;;;;2.17;97.25;102753.69;5073186;28;20120;-70
2022/01/15 11:23:42;;;;;;;82.77;37.43;;;;;;;2.17;96.61;102756.31;5071954;28;20033;-69
2022/01/15 11:26:11;;;;;;;76.50;35.93;;;;;;;2.04;95.82;102755.41;5073585;28;20379;-69
2022/01/15 11:28:37;;;;;;;84.50;38.23;;;;;;;1.96;96.43;102749.25;5093925;28;20080;-69
2022/01/15 11:31:07;;;;;;;66.10;35.10;;;;;;;2.09;96.42;102754.53;5087694;28;20374;-65
2022/01/15 11:33:45;;;;;;;71.75;37.42;;;;;;;2.12;96.35;102754.53;5072505;28;20091;-65
2022/01/15 11:36:27;;;;;;;69.37;35.97;;;;;;;2.14;96.57;102740.56;5073160;28;20058;-65
2022/01/15 11:38:53;;;;;;;73.07;37.28;;;;;;;2.16;96.21;102749.31;5072902;28;20032;-65